Nearby METAR Reports

 

KSJC - San Jose, California, USA
Distance from station: NØ 14km
Oppdatert: 21/10/2019 14:53
Klart
Klart
 Vind fra calm
Vind: Stille
Temperatur: 12°C
Duggpunkt: 9°C
Fuktighet: 82%
Barometer: 1020.7 hPa
Clouds: Klart
Visibility: 16 km
2019/10/21 12:53 KSJC 211253Z 00000KT 10SM CLR 12/09 A3014 RMK AO2 SLP204 T01220094
KNUQ - Moffett Nas/Mtn, California, USA
Distance from station: N 14km
Oppdatert: 21/10/2019 14:56

 
Barometer: 1020.7 hPa
2019/10/21 12:56 KNUQ 211256Z A3014 RMK AO2 SLP210 PWINO $
 
KPAO - Palo Alto, California, USA
Distance from station: NNV 23km
Oppdatert: 21/10/2019 05:47
NOT Current
Klart
Klart
 Vind fra calm
Vind: Stille
Temperatur: 14°C
Duggpunkt: 9°C
Fuktighet: 72%
Barometer: 1020 hPa
Clouds: Klart
Visibility: 16 km
2019/10/21 03:47 KPAO 210347Z 00000KT 10SM SKC 14/09 A3012 RMK LAST
KRHV - San Jose/Reid, California, USA
Distance from station: ØNØ 19km
Oppdatert: 21/10/2019 06:50
NOT Current
Klart
Klart
 Vind fra calm
Vind: Stille
Temperatur: 16°C
Duggpunkt: 10°C
Fuktighet: 68%
Barometer: 1020.3 hPa
Clouds: Klart
Visibility: 16 km
2019/10/21 04:50 KRHV 210450Z 00000KT 10SM SKC 16/10 A3013 RMK LAST
 
KOAK - Oakland, California, USA
Distance from station: NNV 50km
Oppdatert: 21/10/2019 14:53
Klart
Klart
 Vind fra ØNØ
Vind: ØNØ 6 km/h
Temperatur: 11°C
Duggpunkt: 8°C
Fuktighet: 82%
Barometer: 1021 hPa
Clouds: Klart
Visibility: 16 km
2019/10/21 12:53 KOAK 211253Z 07003KT 10SM CLR 11/08 A3015 RMK AO2 SLP208 T01060083
KSQL - San Carlos Airpo, California, USA
Distance from station: NV 34km
Oppdatert: 21/10/2019 05:58
NOT Current
Klart
Klart
 Vind fra calm
Vind: Stille
Temperatur: 17°C
Duggpunkt: 9°C
Fuktighet: 59%
Barometer: 1020 hPa
Clouds: Klart
Visibility: 16 km
2019/10/21 03:58 KSQL 210358Z 00000KT 10SM SKC 17/09 A3012 RMK LAST
 
KSFO - San Francisco, California, USA
Distance from station: NV 49km
Oppdatert: 21/10/2019 14:56
Klart
Klart
 Vind fra SV
Vind: SV 6 km/h
Temperatur: 13°C
Duggpunkt: 9°C
Fuktighet: 77%
Barometer: 1020 hPa
Clouds: Klart
Visibility: 16 km
2019/10/21 12:56 KSFO 211256Z 23003KT 10SM CLR 13/09 A3012 RMK AO2 SLP200 T01280089
KE16 - San Martin, California, USA
Distance from station: ØSØ 43km
Oppdatert: 21/10/2019 15:15
Klart
Klart
 Vind fra NNV
Vind: NNV 6 km/h
Temperatur: 10°C
Duggpunkt: 7°C
Fuktighet: 82%
Barometer: 1021 hPa
Clouds: Klart
Visibility: 16 km
2019/10/21 13:15 KE16 211315Z AUTO 34003KT 10SM CLR 10/07 A3015 RMK AO2
 
KWVI - Watsonville, California, USA
Distance from station: SSØ 44km
Oppdatert: 21/10/2019 14:53
Klart
Klart
 Vind fra calm
Vind: Stille
Temperatur: 11°C
Duggpunkt: 7°C
Fuktighet: 77%
Barometer: 1020 hPa
Clouds: Klart
Visibility: 16 km
2019/10/21 12:53 KWVI 211253Z AUTO 00000KT 10SM CLR 11/07 A3012 RMK AO2 SLP198 T01060072
KHAF - Half Moon Bay, California, USA
Distance from station: VNV 50km
Oppdatert: 21/10/2019 15:15
Hovedsaklig skyet
Hovedsaklig skyet
 Vind fra calm
Vind: Stille
Temperatur: 9°C
Duggpunkt: 8°C
Fuktighet: 94%
Barometer: 1020.3 hPa
Clouds: Hovedsaklig skyet
Visibility: 14 km
Cloud details: Hovedsaklig skyet 61 m
2019/10/21 13:15 KHAF 211315Z AUTO 00000KT 9SM BKN002 09/08 A3013 RMK AO2
 
KHWD - Hayward, California, USA
Distance from station: N 44km
Oppdatert: 21/10/2019 14:54
Klart
Klart
 Vind fra Ø
Vind: Ø 7 km/h
Temperatur: 11°C
Duggpunkt: 8°C
Fuktighet: 82%
Barometer: 1020.3 hPa
Clouds: Klart
Visibility: 16 km
2019/10/21 12:54 KHWD 211254Z AUTO 10004KT 10SM CLR 11/08 A3013 RMK AO2 SLP213 T01110078
KLVK - Livermore, California, USA
Distance from station: NNØ 51km
Oppdatert: 21/10/2019 14:53
Klart
Klart
 Vind fra Ø
Vind: Ø 6 km/h
Temperatur: 10°C
Duggpunkt: 6°C
Fuktighet: 76%
Barometer: 1020.7 hPa
Clouds: Klart
Visibility: 16 km
2019/10/21 12:53 KLVK 211253Z AUTO 08003KT 10SM CLR 10/06 A3014 RMK AO2 SLP203 T01000056